createdAt,value
2018-07-05T00:02:22.541Z,99.90
2018-07-05T00:05:02.125Z,99.90
2018-07-05T00:07:41.504Z,99.90
2018-07-05T00:10:21.031Z,99.90
2018-07-05T00:13:00.455Z,99.90
2018-07-05T00:15:40.765Z,99.90
2018-07-05T00:18:20.330Z,99.90
2018-07-05T00:20:59.846Z,99.90
2018-07-05T00:26:12.928Z,99.90
2018-07-05T00:28:52.582Z,99.90
2018-07-05T00:31:32.071Z,99.90
2018-07-05T00:34:11.686Z,99.90
2018-07-05T00:36:51.036Z,99.90
2018-07-05T00:39:34.115Z,99.90
2018-07-05T00:42:13.757Z,99.90
2018-07-05T00:44:53.278Z,99.90
2018-07-05T00:47:32.872Z,99.90
2018-07-05T00:50:12.517Z,99.90
2018-07-05T00:52:55.428Z,99.90
2018-07-05T00:55:35.025Z,99.90
2018-07-05T00:58:15.000Z,99.90
2018-07-05T01:00:55.469Z,99.90
2018-07-05T01:03:35.093Z,99.90
2018-07-05T01:06:15.434Z,99.90
2018-07-05T01:08:55.863Z,99.90
2018-07-05T01:11:35.499Z,99.90
2018-07-05T01:14:15.961Z,99.90
2018-07-05T01:16:55.608Z,99.90
2018-07-05T01:19:35.241Z,99.90
2018-07-05T01:22:15.700Z,99.90
2018-07-05T01:24:55.245Z,99.90
2018-07-05T01:27:37.734Z,99.90
2018-07-05T01:32:51.711Z,99.90
2018-07-05T01:35:31.333Z,99.90
2018-07-05T01:38:14.192Z,99.90
2018-07-05T01:40:53.517Z,99.90
2018-07-05T01:43:32.976Z,99.90
2018-07-05T01:46:13.100Z,99.90
2018-07-05T01:48:52.720Z,99.90
2018-07-05T01:51:32.191Z,99.90
2018-07-05T01:54:15.424Z,99.90
2018-07-05T01:56:54.999Z,99.90
2018-07-05T02:02:08.873Z,99.90
2018-07-05T02:04:48.452Z,99.90
2018-07-05T02:07:28.121Z,99.90
2018-07-05T02:10:11.808Z,99.90
2018-07-05T02:12:52.908Z,99.90
2018-07-05T02:15:32.548Z,99.90
2018-07-05T02:18:12.121Z,99.90
2018-07-05T02:20:52.352Z,99.90
2018-07-05T02:23:31.741Z,99.90
2018-07-05T02:26:11.209Z,99.90
2018-07-05T02:28:50.669Z,99.90
2018-07-05T02:31:30.130Z,99.90
2018-07-05T02:34:09.749Z,99.90
2018-07-05T02:36:49.267Z,99.90
2018-07-05T02:39:38.825Z,99.90
2018-07-05T02:42:18.786Z,99.90
2018-07-05T02:44:58.313Z,99.90
2018-07-05T02:47:37.742Z,99.90
2018-07-05T02:50:17.439Z,99.90
2018-07-05T02:52:56.973Z,99.90
2018-07-05T02:55:40.532Z,99.90
2018-07-05T02:58:21.330Z,99.90
2018-07-05T03:01:01.946Z,99.90
2018-07-05T03:03:41.553Z,99.90
2018-07-05T03:06:21.991Z,99.90
2018-07-05T03:09:02.893Z,99.90
2018-07-05T03:11:50.143Z,99.90
2018-07-05T03:14:29.803Z,99.90
2018-07-05T03:19:43.771Z,99.90
2018-07-05T03:22:23.232Z,99.90
2018-07-05T03:25:02.705Z,99.90
2018-07-05T03:27:42.109Z,99.90
2018-07-05T03:30:21.597Z,99.90
2018-07-05T03:33:01.152Z,99.90
2018-07-05T03:35:41.612Z,99.90
2018-07-05T03:38:21.457Z,99.90
2018-07-05T03:41:12.665Z,99.90
2018-07-05T03:43:53.013Z,99.90
2018-07-05T03:46:32.533Z,99.90
2018-07-05T03:49:12.520Z,99.90
2018-07-05T03:51:52.125Z,99.90
2018-07-05T03:54:31.592Z,99.90
2018-07-05T03:57:11.304Z,99.90
2018-07-05T03:59:50.984Z,99.90
2018-07-05T04:02:30.522Z,99.90
2018-07-05T04:05:09.924Z,99.90
2018-07-05T04:07:49.400Z,99.90
2018-07-05T04:10:28.889Z,99.90
2018-07-05T04:13:08.596Z,99.90
2018-07-05T04:15:48.862Z,99.90
2018-07-05T04:18:28.560Z,99.90
2018-07-05T04:21:07.925Z,99.90
2018-07-05T04:23:47.466Z,99.90
2018-07-05T04:29:02.524Z,99.90
2018-07-05T04:31:42.089Z,99.90
2018-07-05T04:34:21.525Z,99.90
2018-07-05T04:37:01.068Z,99.90
2018-07-05T04:39:41.228Z,99.90
2018-07-05T04:42:20.760Z,99.90
2018-07-05T04:45:00.420Z,99.90
2018-07-05T04:47:40.055Z,99.90
2018-07-05T04:50:19.488Z,99.90
2018-07-05T04:52:59.067Z,99.90
2018-07-05T04:55:38.680Z,99.90
2018-07-05T04:58:19.144Z,99.90
2018-07-05T05:00:58.764Z,99.90
2018-07-05T05:03:38.285Z,99.90
2018-07-05T05:06:17.940Z,99.90
2018-07-05T05:08:57.542Z,99.90
2018-07-05T05:11:36.936Z,99.90
2018-07-05T05:14:16.529Z,99.70
2018-07-05T05:19:30.391Z,98.70
2018-07-05T05:22:10.037Z,98.00
2018-07-05T05:24:49.869Z,97.90
2018-07-05T05:27:29.332Z,97.70
2018-07-05T05:30:08.957Z,97.80
2018-07-05T05:32:48.549Z,98.00
2018-07-05T05:35:28.142Z,97.60
2018-07-05T05:38:08.773Z,96.10
2018-07-05T05:40:48.297Z,95.00
2018-07-05T05:43:27.797Z,94.40
2018-07-05T05:46:07.470Z,93.80
2018-07-05T05:48:46.942Z,92.80
2018-07-05T05:51:26.568Z,93.00
2018-07-05T05:54:07.533Z,93.00
2018-07-05T05:56:46.954Z,93.70
2018-07-05T06:02:00.127Z,92.60
2018-07-05T06:04:39.725Z,91.80
2018-07-05T06:09:53.824Z,92.10
2018-07-05T06:12:37.154Z,93.00
2018-07-05T06:15:16.811Z,92.60
2018-07-05T06:17:56.819Z,92.10
2018-07-05T06:20:36.477Z,91.40
2018-07-05T06:23:16.928Z,91.00
2018-07-05T06:25:56.539Z,91.10
2018-07-05T06:28:35.953Z,91.00
2018-07-05T06:33:49.898Z,88.60
2018-07-05T06:36:29.397Z,87.20
2018-07-05T06:39:08.996Z,85.90
2018-07-05T06:41:49.050Z,84.50
2018-07-05T06:44:28.638Z,83.00
2018-07-05T06:47:08.177Z,81.80
2018-07-05T06:49:48.499Z,83.50
2018-07-05T06:52:28.096Z,86.80
2018-07-05T06:57:41.240Z,91.50
2018-07-05T07:00:24.087Z,92.10
2018-07-05T07:03:03.617Z,93.00
2018-07-05T07:05:43.608Z,93.60
2018-07-05T07:08:23.043Z,93.50
2018-07-05T07:11:02.701Z,94.30
2018-07-05T07:13:46.280Z,94.60
2018-07-05T07:16:26.575Z,94.10
2018-07-05T07:19:06.895Z,93.80
2018-07-05T07:21:46.533Z,93.90
2018-07-05T07:26:59.548Z,94.70
2018-07-05T07:29:39.933Z,94.60
2018-07-05T07:32:20.581Z,94.90
2018-07-05T07:35:00.065Z,95.10
2018-07-05T07:37:39.686Z,95.40
2018-07-05T07:40:19.192Z,95.90
2018-07-05T07:42:47.235Z,95.80
2018-07-05T07:45:14.435Z,95.60
2018-07-05T07:47:41.951Z,95.10
2018-07-05T07:50:10.037Z,95.00
2018-07-05T07:52:38.348Z,94.70
2018-07-05T08:02:32.375Z,92.90
2018-07-05T08:04:59.689Z,92.40
2018-07-05T08:07:26.973Z,92.50
2018-07-05T08:09:54.624Z,91.00
2018-07-05T08:12:21.888Z,91.20
2018-07-05T08:14:54.391Z,92.10
2018-07-05T08:17:21.765Z,92.00
2018-07-05T08:19:49.072Z,91.00
2018-07-05T08:22:16.329Z,90.30
2018-07-05T08:24:43.579Z,90.20
2018-07-05T08:27:10.828Z,90.20
2018-07-05T08:29:40.869Z,89.00
2018-07-05T08:32:08.481Z,88.70
2018-07-05T08:34:35.764Z,87.70
2018-07-05T08:37:03.932Z,88.30
2018-07-05T08:39:31.301Z,88.10
2018-07-05T08:41:58.540Z,87.80
2018-07-05T08:44:25.768Z,87.40
2018-07-05T08:46:57.371Z,87.50
2018-07-05T08:49:24.612Z,87.70
2018-07-05T08:51:51.852Z,86.70
2018-07-05T08:54:19.096Z,87.70
2018-07-05T08:56:46.869Z,87.20
2018-07-05T08:59:14.126Z,87.10
2018-07-05T09:01:52.897Z,86.50
2018-07-05T09:04:20.144Z,87.80
2018-07-05T09:06:47.571Z,85.30
2018-07-05T09:09:14.807Z,82.80
2018-07-05T09:14:10.466Z,78.40
2018-07-05T09:16:42.209Z,78.40
2018-07-05T09:19:09.453Z,79.60
2018-07-05T09:21:36.707Z,79.70
2018-07-05T09:24:03.926Z,80.70
2018-07-05T09:26:31.180Z,82.00
2018-07-05T09:28:58.433Z,81.30
2018-07-05T09:33:57.657Z,73.40
2018-07-05T09:36:24.925Z,71.80
2018-07-05T09:38:52.172Z,72.80
2018-07-05T09:41:19.397Z,75.10
2018-07-05T09:46:18.041Z,77.70
2018-07-05T09:48:45.254Z,78.20
2018-07-05T09:51:12.523Z,78.20
2018-07-05T09:53:39.736Z,76.70
2018-07-05T09:56:06.932Z,73.80
2018-07-05T09:58:34.191Z,73.80
2018-07-05T10:01:01.445Z,73.70
2018-07-05T10:03:32.045Z,72.30
2018-07-05T10:05:59.221Z,71.50
2018-07-05T10:08:26.468Z,72.70
2018-07-05T10:10:53.731Z,71.80
2018-07-05T10:13:21.867Z,69.90
2018-07-05T10:15:49.437Z,68.90
2018-07-05T10:18:16.642Z,67.30
2018-07-05T10:20:44.074Z,67.30
2018-07-05T10:23:11.324Z,69.00
2018-07-05T10:25:38.573Z,69.60
2018-07-05T10:28:05.829Z,69.40
2018-07-05T10:30:45.528Z,67.80
2018-07-05T10:33:25.131Z,67.60
2018-07-05T10:35:53.280Z,67.80
2018-07-05T10:43:34.697Z,66.30
2018-07-05T10:46:14.256Z,68.00
2018-07-05T10:48:57.028Z,69.20
2018-07-05T10:51:36.702Z,69.40
2018-07-05T10:56:50.664Z,67.30
2018-07-05T10:59:30.208Z,66.50
2018-07-05T11:02:14.054Z,66.50
2018-07-05T11:04:54.367Z,65.40
2018-07-05T11:07:34.224Z,65.00
2018-07-05T11:10:13.617Z,64.10
2018-07-05T11:12:53.329Z,63.90
2018-07-05T11:15:32.860Z,65.70
2018-07-05T11:18:16.201Z,64.40
2018-07-05T11:23:29.445Z,63.10
2018-07-05T11:26:09.094Z,59.90
2018-07-05T11:28:48.625Z,60.60
2018-07-05T11:31:28.137Z,60.70
2018-07-05T11:34:07.637Z,59.30
2018-07-05T11:36:47.297Z,57.50
2018-07-05T11:39:27.715Z,56.60
2018-07-05T11:42:07.323Z,55.50
2018-07-05T11:44:46.861Z,56.60
2018-07-05T11:47:26.348Z,57.20
2018-07-05T11:50:09.124Z,57.30
2018-07-05T11:52:48.814Z,56.20
2018-07-05T11:55:29.211Z,55.80
2018-07-05T11:58:08.837Z,55.50
2018-07-05T12:00:48.518Z,55.40
2018-07-05T12:03:30.968Z,56.30
2018-07-05T12:06:13.513Z,56.90
2018-07-05T12:08:53.347Z,60.50
2018-07-05T12:11:32.900Z,62.70
2018-07-05T12:14:12.983Z,63.70
2018-07-05T12:16:52.594Z,63.10
2018-07-05T12:22:09.598Z,65.60
2018-07-05T12:24:49.770Z,64.70
2018-07-05T12:27:29.443Z,67.20
2018-07-05T12:32:42.615Z,67.80
2018-07-05T12:35:22.177Z,66.90
2018-07-05T12:38:01.716Z,65.80
2018-07-05T12:40:41.416Z,66.30
2018-07-05T12:43:21.911Z,65.80
2018-07-05T12:46:01.544Z,68.10
2018-07-05T12:48:41.141Z,67.90
2018-07-05T12:51:20.581Z,67.40
2018-07-05T12:54:00.009Z,68.20
2018-07-05T12:56:40.808Z,68.00
2018-07-05T13:01:54.875Z,68.60
2018-07-05T13:04:38.100Z,70.20
2018-07-05T13:07:17.654Z,71.20
2018-07-05T13:12:30.973Z,69.40
2018-07-05T13:15:10.673Z,68.00
2018-07-05T13:17:50.319Z,66.90
2018-07-05T13:20:33.496Z,65.80
2018-07-05T13:23:13.449Z,64.10
2018-07-05T13:25:53.100Z,64.10
2018-07-05T13:31:06.350Z,63.20
2018-07-05T13:33:45.777Z,62.40
2018-07-05T13:36:25.381Z,62.30
2018-07-05T13:39:05.342Z,61.30
2018-07-05T13:41:45.127Z,61.60
2018-07-05T13:44:24.761Z,62.90
2018-07-05T13:47:04.434Z,71.20
2018-07-05T13:49:43.887Z,76.60
2018-07-05T13:52:23.512Z,81.60
2018-07-05T13:57:38.079Z,84.00
2018-07-05T14:00:17.521Z,84.80
2018-07-05T14:02:57.873Z,83.30
2018-07-05T14:05:40.794Z,87.60
2018-07-05T14:08:20.332Z,96.50
2018-07-05T14:10:59.819Z,99.90
2018-07-05T14:13:39.402Z,99.90
2018-07-05T14:16:19.057Z,99.90
2018-07-05T14:21:35.374Z,99.90
2018-07-05T14:24:14.810Z,99.90
2018-07-05T14:26:55.373Z,99.90
2018-07-05T14:29:34.828Z,99.90
2018-07-05T14:32:14.436Z,99.90
2018-07-05T14:34:54.076Z,99.90
2018-07-05T14:37:33.659Z,99.90
2018-07-05T14:42:47.043Z,99.90
2018-07-05T14:45:27.210Z,99.90
2018-07-05T14:48:07.092Z,99.90
2018-07-05T14:50:46.801Z,99.90
2018-07-05T14:53:26.285Z,99.90
2018-07-05T14:56:05.825Z,99.90
2018-07-05T14:58:45.386Z,99.90
2018-07-05T15:01:24.804Z,99.90
2018-07-05T15:04:05.408Z,99.90
2018-07-05T15:06:44.813Z,99.90
2018-07-05T15:09:24.385Z,99.90
2018-07-05T15:12:04.046Z,99.90
2018-07-05T15:14:43.452Z,99.90
2018-07-05T15:19:57.351Z,99.90
2018-07-05T15:22:40.197Z,99.90
2018-07-05T15:25:19.840Z,99.90
2018-07-05T15:27:59.533Z,99.90
2018-07-05T15:30:39.025Z,99.90
2018-07-05T15:33:18.555Z,99.90
2018-07-05T15:35:58.385Z,99.90
2018-07-05T15:38:38.363Z,99.90
2018-07-05T15:41:17.968Z,99.90
2018-07-05T15:43:57.650Z,99.90
2018-07-05T15:46:37.259Z,99.90
2018-07-05T15:49:16.880Z,99.90
2018-07-05T15:51:57.195Z,99.90
2018-07-05T15:54:36.840Z,99.90
2018-07-05T15:57:16.532Z,99.90
2018-07-05T16:05:03.016Z,99.90
2018-07-05T16:07:46.697Z,99.90
2018-07-05T16:10:26.298Z,99.90
2018-07-05T16:13:05.813Z,99.90
2018-07-05T16:15:45.342Z,99.90
2018-07-05T16:18:24.984Z,99.90
2018-07-05T16:23:38.325Z,99.90
2018-07-05T16:28:52.228Z,99.90
2018-07-05T16:31:31.764Z,99.90
2018-07-05T16:34:11.469Z,99.90
2018-07-05T16:36:51.169Z,99.90
2018-07-05T16:39:34.192Z,99.90
2018-07-05T16:42:15.057Z,99.90
2018-07-05T16:44:54.640Z,99.90
2018-07-05T16:47:34.276Z,99.90
2018-07-05T16:50:13.859Z,99.90
2018-07-05T16:52:57.024Z,99.90
2018-07-05T16:55:36.672Z,99.90
2018-07-05T16:58:16.280Z,99.90
2018-07-05T17:00:55.719Z,99.90
2018-07-05T17:03:35.423Z,99.90
2018-07-05T17:06:15.187Z,99.90
2018-07-05T17:08:54.770Z,99.90
2018-07-05T17:11:35.591Z,99.90
2018-07-05T17:14:15.233Z,99.90
2018-07-05T17:16:54.985Z,99.90
2018-07-05T17:19:34.659Z,99.90
2018-07-05T17:22:14.439Z,99.90
2018-07-05T17:24:54.933Z,99.90
2018-07-05T17:27:34.693Z,99.90
2018-07-05T17:30:14.425Z,99.90
2018-07-05T17:32:54.245Z,99.90
2018-07-05T17:35:33.899Z,99.90
2018-07-05T17:38:13.598Z,99.90
2018-07-05T17:40:56.716Z,99.90
2018-07-05T17:43:36.265Z,99.90
2018-07-05T17:46:15.848Z,99.90
2018-07-05T17:48:55.475Z,99.90
2018-07-05T17:51:35.265Z,99.90
2018-07-05T17:54:15.746Z,99.90
2018-07-05T17:56:58.565Z,99.90
2018-07-05T17:59:38.357Z,99.90
2018-07-05T18:02:18.125Z,99.90
2018-07-05T18:04:59.716Z,99.90
2018-07-05T18:07:39.316Z,99.90
2018-07-05T18:10:29.640Z,99.90
2018-07-05T18:13:09.191Z,99.90
2018-07-05T18:15:48.935Z,99.90
2018-07-05T18:18:28.534Z,99.90
2018-07-05T18:21:08.301Z,99.90
2018-07-05T18:23:48.727Z,99.90
2018-07-05T18:26:28.396Z,99.90
2018-07-05T18:29:08.096Z,99.90
2018-07-05T18:31:47.758Z,99.90
2018-07-05T18:34:27.325Z,99.90
2018-07-05T18:37:07.443Z,99.90
2018-07-05T18:39:50.496Z,99.90
2018-07-05T18:42:30.204Z,99.90
2018-07-05T18:45:10.141Z,99.90
2018-07-05T18:47:50.211Z,99.90
2018-07-05T18:50:30.013Z,99.90
2018-07-05T18:53:09.792Z,99.90
2018-07-05T18:55:49.315Z,99.90
2018-07-05T18:58:29.237Z,99.90
2018-07-05T19:01:09.705Z,99.90
2018-07-05T19:03:49.387Z,99.90
2018-07-05T19:06:29.044Z,99.90
2018-07-05T19:09:08.629Z,99.90
2018-07-05T19:11:48.324Z,99.90
2018-07-05T19:14:28.116Z,99.90
2018-07-05T19:17:07.821Z,99.90
2018-07-05T19:19:47.460Z,99.90
2018-07-05T19:22:27.070Z,99.90
2018-07-05T19:25:06.527Z,99.90
2018-07-05T19:27:46.497Z,99.90
2018-07-05T19:30:26.189Z,99.90
2018-07-05T19:33:07.380Z,99.90
2018-07-05T19:35:47.054Z,99.90
2018-07-05T19:38:26.600Z,99.90
2018-07-05T19:41:12.424Z,99.90
2018-07-05T19:43:52.071Z,99.90
2018-07-05T19:46:32.139Z,99.90
2018-07-05T19:49:11.725Z,99.90
2018-07-05T19:51:51.409Z,99.90
2018-07-05T19:54:31.012Z,99.90
2018-07-05T19:57:10.512Z,99.90
2018-07-05T19:59:50.053Z,99.90
2018-07-05T20:05:04.003Z,99.90
2018-07-05T20:07:43.789Z,99.90
2018-07-05T20:10:23.609Z,99.90
2018-07-05T20:15:37.768Z,99.90
2018-07-05T20:18:17.467Z,99.90
2018-07-05T20:20:57.140Z,99.90
2018-07-05T20:23:36.799Z,99.90
2018-07-05T20:26:16.584Z,99.90
2018-07-05T20:28:56.020Z,99.90
2018-07-05T20:31:36.121Z,99.90
2018-07-05T20:34:15.709Z,99.90
2018-07-05T20:39:29.459Z,99.90
2018-07-05T20:42:13.068Z,99.90
2018-07-05T20:44:52.590Z,99.90
2018-07-05T20:47:32.150Z,99.90
2018-07-05T20:50:11.839Z,99.90
2018-07-05T20:52:51.272Z,99.90
2018-07-05T20:55:31.184Z,99.90
2018-07-05T20:58:10.773Z,99.90
2018-07-05T21:00:51.120Z,99.90
2018-07-05T21:03:30.671Z,99.90
2018-07-05T21:06:10.407Z,99.90
2018-07-05T21:08:49.941Z,99.90
2018-07-05T21:11:29.574Z,99.90
2018-07-05T21:14:09.236Z,99.90
2018-07-05T21:16:48.789Z,99.90
2018-07-05T21:19:28.928Z,99.90
2018-07-05T21:24:42.236Z,99.90
2018-07-05T21:27:21.770Z,99.90
2018-07-05T21:30:01.297Z,99.90
2018-07-05T21:32:41.760Z,99.90
2018-07-05T21:35:21.258Z,99.90
2018-07-05T21:40:34.573Z,99.90
2018-07-05T21:43:14.213Z,99.90
2018-07-05T21:45:53.697Z,99.90
2018-07-05T21:48:34.148Z,99.90
2018-07-05T21:51:13.786Z,99.90
2018-07-05T21:53:53.395Z,99.90
2018-07-05T21:56:33.161Z,99.90
2018-07-05T22:01:46.177Z,99.90
2018-07-05T22:04:25.720Z,99.90
2018-07-05T22:07:05.189Z,99.90
2018-07-05T22:09:45.568Z,99.90
2018-07-05T22:12:25.197Z,99.90
2018-07-05T22:15:04.836Z,99.90
2018-07-05T22:17:49.980Z,99.90
2018-07-05T22:20:36.070Z,99.90
2018-07-05T22:23:22.148Z,99.90
2018-07-05T22:26:07.085Z,99.90
2018-07-05T22:28:59.994Z,99.90
2018-07-05T22:31:39.375Z,99.90
2018-07-05T22:34:18.892Z,99.90
2018-07-05T22:36:58.500Z,99.90
2018-07-05T22:39:38.078Z,99.90
2018-07-05T22:42:18.031Z,99.90
2018-07-05T22:44:57.580Z,99.90
2018-07-05T22:47:37.209Z,99.90
2018-07-05T22:50:16.749Z,99.90
2018-07-05T22:52:56.298Z,99.90
2018-07-05T22:55:35.933Z,99.90
2018-07-05T22:58:15.368Z,99.90
2018-07-05T23:00:55.012Z,99.90
2018-07-05T23:03:34.468Z,99.90
2018-07-05T23:06:14.445Z,99.90
2018-07-05T23:08:54.044Z,99.90
2018-07-05T23:11:33.789Z,99.90
2018-07-05T23:14:16.377Z,99.90
2018-07-05T23:16:55.945Z,99.90
2018-07-05T23:19:35.838Z,99.90
2018-07-05T23:22:15.954Z,99.90
2018-07-05T23:24:55.489Z,99.90
2018-07-05T23:27:35.132Z,99.90
2018-07-05T23:30:25.285Z,99.90
2018-07-05T23:33:04.932Z,99.90
2018-07-05T23:35:44.341Z,99.90
2018-07-05T23:38:23.839Z,99.90
2018-07-05T23:41:03.389Z,99.90
2018-07-05T23:43:43.065Z,99.90
2018-07-05T23:46:26.257Z,99.90
2018-07-05T23:49:05.805Z,99.90
2018-07-05T23:51:45.438Z,99.90
2018-07-05T23:54:25.140Z,99.90
2018-07-05T23:57:04.716Z,99.90
2018-07-05T23:59:44.153Z,99.90
